sensor_id;sensor_type;location;lat;lon;timestamp;P1;durP1;ratioP1;P2;durP2;ratioP2
11590;SDS011;5851;54.050;9.974;2023-11-19T00:00:30;9.60;;;6.20;;
11590;SDS011;5851;54.050;9.974;2023-11-19T00:02:57;7.80;;;6.00;;
11590;SDS011;5851;54.050;9.974;2023-11-19T00:05:24;9.10;;;6.33;;
11590;SDS011;5851;54.050;9.974;2023-11-19T00:07:51;8.07;;;6.00;;
11590;SDS011;5851;54.050;9.974;2023-11-19T00:10:19;8.40;;;6.40;;
11590;SDS011;5851;54.050;9.974;2023-11-19T00:12:46;10.60;;;6.30;;
11590;SDS011;5851;54.050;9.974;2023-11-19T00:15:14;7.87;;;6.03;;
11590;SDS011;5851;54.050;9.974;2023-11-19T00:17:44;9.53;;;6.13;;
11590;SDS011;5851;54.050;9.974;2023-11-19T00:20:12;8.63;;;6.00;;
11590;SDS011;5851;54.050;9.974;2023-11-19T00:22:40;7.87;;;5.83;;
11590;SDS011;5851;54.050;9.974;2023-11-19T00:25:07;7.43;;;5.70;;
11590;SDS011;5851;54.050;9.974;2023-11-19T00:27:36;9.00;;;5.73;;
11590;SDS011;5851;54.050;9.974;2023-11-19T00:30:03;7.13;;;5.73;;
11590;SDS011;5851;54.050;9.974;2023-11-19T00:32:31;8.03;;;5.53;;
11590;SDS011;5851;54.050;9.974;2023-11-19T00:34:58;7.37;;;5.57;;
11590;SDS011;5851;54.050;9.974;2023-11-19T00:37:25;7.30;;;5.60;;
11590;SDS011;5851;54.050;9.974;2023-11-19T00:39:52;7.40;;;5.30;;
11590;SDS011;5851;54.050;9.974;2023-11-19T00:42:21;6.83;;;5.00;;
11590;SDS011;5851;54.050;9.974;2023-11-19T00:44:50;9.57;;;5.03;;
11590;SDS011;5851;54.050;9.974;2023-11-19T00:47:17;6.40;;;5.33;;
11590;SDS011;5851;54.050;9.974;2023-11-19T00:49:45;7.77;;;5.10;;
11590;SDS011;5851;54.050;9.974;2023-11-19T00:52:13;7.00;;;5.17;;
11590;SDS011;5851;54.050;9.974;2023-11-19T00:54:41;5.80;;;4.57;;
11590;SDS011;5851;54.050;9.974;2023-11-19T00:57:08;6.87;;;4.47;;
11590;SDS011;5851;54.050;9.974;2023-11-19T00:59:34;6.97;;;4.73;;
11590;SDS011;5851;54.050;9.974;2023-11-19T01:02:03;5.57;;;4.30;;
11590;SDS011;5851;54.050;9.974;2023-11-19T01:04:33;6.70;;;4.80;;
11590;SDS011;5851;54.050;9.974;2023-11-19T01:07:01;5.73;;;4.53;;
11590;SDS011;5851;54.050;9.974;2023-11-19T01:09:30;5.57;;;4.20;;
11590;SDS011;5851;54.050;9.974;2023-11-19T01:11:59;5.27;;;4.20;;
11590;SDS011;5851;54.050;9.974;2023-11-19T01:14:26;5.90;;;4.10;;
11590;SDS011;5851;54.050;9.974;2023-11-19T01:16:54;6.37;;;4.53;;
11590;SDS011;5851;54.050;9.974;2023-11-19T01:19:22;5.37;;;4.20;;
11590;SDS011;5851;54.050;9.974;2023-11-19T01:21:49;4.57;;;3.60;;
11590;SDS011;5851;54.050;9.974;2023-11-19T01:24:16;5.13;;;3.77;;
11590;SDS011;5851;54.050;9.974;2023-11-19T01:26:46;4.63;;;3.60;;
11590;SDS011;5851;54.050;9.974;2023-11-19T01:29:14;5.30;;;3.70;;
11590;SDS011;5851;54.050;9.974;2023-11-19T01:31:41;3.80;;;3.27;;
11590;SDS011;5851;54.050;9.974;2023-11-19T01:34:09;4.00;;;3.07;;
11590;SDS011;5851;54.050;9.974;2023-11-19T01:36:38;4.07;;;3.33;;
11590;SDS011;5851;54.050;9.974;2023-11-19T01:39:05;4.00;;;3.30;;
11590;SDS011;5851;54.050;9.974;2023-11-19T01:41:33;3.40;;;3.10;;
11590;SDS011;5851;54.050;9.974;2023-11-19T01:44:01;3.70;;;2.90;;
11590;SDS011;5851;54.050;9.974;2023-11-19T01:46:29;5.23;;;3.03;;
11590;SDS011;5851;54.050;9.974;2023-11-19T01:48:57;3.40;;;3.10;;
11590;SDS011;5851;54.050;9.974;2023-11-19T01:51:26;4.00;;;3.00;;
11590;SDS011;5851;54.050;9.974;2023-11-19T01:53:55;3.17;;;2.87;;
11590;SDS011;5851;54.050;9.974;2023-11-19T01:56:23;3.30;;;2.87;;
11590;SDS011;5851;54.050;9.974;2023-11-19T01:58:52;3.20;;;2.70;;
11590;SDS011;5851;54.050;9.974;2023-11-19T02:01:21;3.30;;;2.50;;
11590;SDS011;5851;54.050;9.974;2023-11-19T02:03:48;3.13;;;2.77;;
11590;SDS011;5851;54.050;9.974;2023-11-19T02:06:15;3.20;;;2.40;;
11590;SDS011;5851;54.050;9.974;2023-11-19T02:08:42;2.50;;;2.30;;
11590;SDS011;5851;54.050;9.974;2023-11-19T02:11:11;2.60;;;2.40;;
11590;SDS011;5851;54.050;9.974;2023-11-19T02:13:38;2.50;;;2.30;;
11590;SDS011;5851;54.050;9.974;2023-11-19T02:16:06;2.40;;;2.20;;
11590;SDS011;5851;54.050;9.974;2023-11-19T02:18:34;2.27;;;1.90;;
11590;SDS011;5851;54.050;9.974;2023-11-19T02:21:01;2.40;;;2.03;;
11590;SDS011;5851;54.050;9.974;2023-11-19T02:23:30;1.70;;;1.60;;
11590;SDS011;5851;54.050;9.974;2023-11-19T02:26:06;1.80;;;1.70;;
11590;SDS011;5851;54.050;9.974;2023-11-19T02:28:41;1.97;;;1.80;;
11590;SDS011;5851;54.050;9.974;2023-11-19T02:31:09;1.83;;;1.70;;
11590;SDS011;5851;54.050;9.974;2023-11-19T02:33:36;1.60;;;1.50;;
11590;SDS011;5851;54.050;9.974;2023-11-19T02:36:04;1.80;;;1.70;;
11590;SDS011;5851;54.050;9.974;2023-11-19T02:38:32;1.70;;;1.60;;
11590;SDS011;5851;54.050;9.974;2023-11-19T02:41:01;1.60;;;1.50;;
11590;SDS011;5851;54.050;9.974;2023-11-19T02:43:30;1.50;;;1.40;;
11590;SDS011;5851;54.050;9.974;2023-11-19T02:46:00;1.33;;;1.27;;
11590;SDS011;5851;54.050;9.974;2023-11-19T02:48:27;1.60;;;1.50;;
11590;SDS011;5851;54.050;9.974;2023-11-19T02:50:55;1.73;;;1.50;;
11590;SDS011;5851;54.050;9.974;2023-11-19T02:53:23;1.47;;;1.37;;
11590;SDS011;5851;54.050;9.974;2023-11-19T02:55:52;1.37;;;1.27;;
11590;SDS011;5851;54.050;9.974;2023-11-19T02:58:26;1.57;;;1.47;;
11590;SDS011;5851;54.050;9.974;2023-11-19T03:00:54;1.50;;;1.40;;
11590;SDS011;5851;54.050;9.974;2023-11-19T03:03:26;1.60;;;1.50;;
11590;SDS011;5851;54.050;9.974;2023-11-19T03:06:03;1.10;;;1.10;;
11590;SDS011;5851;54.050;9.974;2023-11-19T03:08:31;1.33;;;1.17;;
11590;SDS011;5851;54.050;9.974;2023-11-19T03:10:58;1.00;;;1.00;;
11590;SDS011;5851;54.050;9.974;2023-11-19T03:13:25;1.47;;;1.10;;
11590;SDS011;5851;54.050;9.974;2023-11-19T03:15:52;1.17;;;1.07;;
11590;SDS011;5851;54.050;9.974;2023-11-19T03:18:20;1.10;;;1.10;;
11590;SDS011;5851;54.050;9.974;2023-11-19T03:20:48;0.90;;;0.90;;
11590;SDS011;5851;54.050;9.974;2023-11-19T03:23:15;1.10;;;1.10;;
11590;SDS011;5851;54.050;9.974;2023-11-19T03:25:42;1.10;;;1.10;;
11590;SDS011;5851;54.050;9.974;2023-11-19T03:28:09;1.60;;;1.27;;
11590;SDS011;5851;54.050;9.974;2023-11-19T03:30:37;1.10;;;1.00;;
11590;SDS011;5851;54.050;9.974;2023-11-19T03:33:04;0.97;;;0.93;;
11590;SDS011;5851;54.050;9.974;2023-11-19T03:35:31;1.00;;;1.00;;
11590;SDS011;5851;54.050;9.974;2023-11-19T03:38:00;0.63;;;0.63;;
11590;SDS011;5851;54.050;9.974;2023-11-19T03:40:27;0.83;;;0.83;;
11590;SDS011;5851;54.050;9.974;2023-11-19T03:42:55;0.70;;;0.70;;
11590;SDS011;5851;54.050;9.974;2023-11-19T03:45:22;0.70;;;0.70;;
11590;SDS011;5851;54.050;9.974;2023-11-19T03:47:49;0.90;;;0.90;;
11590;SDS011;5851;54.050;9.974;2023-11-19T03:50:17;0.87;;;0.87;;
11590;SDS011;5851;54.050;9.974;2023-11-19T03:52:45;0.63;;;0.63;;
11590;SDS011;5851;54.050;9.974;2023-11-19T03:55:13;0.80;;;0.80;;
11590;SDS011;5851;54.050;9.974;2023-11-19T03:57:40;1.13;;;0.70;;
11590;SDS011;5851;54.050;9.974;2023-11-19T04:00:07;0.53;;;0.53;;
11590;SDS011;5851;54.050;9.974;2023-11-19T04:02:35;0.67;;;0.67;;
11590;SDS011;5851;54.050;9.974;2023-11-19T04:05:02;1.23;;;0.67;;
11590;SDS011;5851;54.050;9.974;2023-11-19T04:07:30;0.50;;;0.50;;
11590;SDS011;5851;54.050;9.974;2023-11-19T04:09:57;0.83;;;0.80;;
11590;SDS011;5851;54.050;9.974;2023-11-19T04:12:25;0.80;;;0.60;;
11590;SDS011;5851;54.050;9.974;2023-11-19T04:14:52;0.50;;;0.50;;
11590;SDS011;5851;54.050;9.974;2023-11-19T04:17:19;0.70;;;0.70;;
11590;SDS011;5851;54.050;9.974;2023-11-19T04:19:46;0.60;;;0.60;;
11590;SDS011;5851;54.050;9.974;2023-11-19T04:22:13;0.73;;;0.73;;
11590;SDS011;5851;54.050;9.974;2023-11-19T04:24:40;0.80;;;0.80;;
11590;SDS011;5851;54.050;9.974;2023-11-19T04:27:09;0.90;;;0.90;;
11590;SDS011;5851;54.050;9.974;2023-11-19T04:29:37;0.77;;;0.77;;
11590;SDS011;5851;54.050;9.974;2023-11-19T04:32:07;0.80;;;0.80;;
11590;SDS011;5851;54.050;9.974;2023-11-19T04:34:34;0.67;;;0.67;;
11590;SDS011;5851;54.050;9.974;2023-11-19T04:37:02;0.73;;;0.73;;
11590;SDS011;5851;54.050;9.974;2023-11-19T04:39:29;0.80;;;0.80;;
11590;SDS011;5851;54.050;9.974;2023-11-19T04:41:56;1.20;;;1.20;;
11590;SDS011;5851;54.050;9.974;2023-11-19T04:44:24;0.80;;;0.80;;
11590;SDS011;5851;54.050;9.974;2023-11-19T04:46:52;1.00;;;1.00;;
11590;SDS011;5851;54.050;9.974;2023-11-19T04:49:19;1.47;;;1.40;;
11590;SDS011;5851;54.050;9.974;2023-11-19T04:51:46;1.40;;;1.30;;
11590;SDS011;5851;54.050;9.974;2023-11-19T04:54:13;1.60;;;1.50;;
11590;SDS011;5851;54.050;9.974;2023-11-19T04:56:40;1.30;;;1.30;;
11590;SDS011;5851;54.050;9.974;2023-11-19T04:59:11;1.37;;;1.27;;
11590;SDS011;5851;54.050;9.974;2023-11-19T05:01:38;1.57;;;1.50;;
11590;SDS011;5851;54.050;9.974;2023-11-19T05:04:06;2.47;;;1.87;;
11590;SDS011;5851;54.050;9.974;2023-11-19T05:06:33;2.67;;;2.20;;
11590;SDS011;5851;54.050;9.974;2023-11-19T05:09:01;4.10;;;2.40;;
11590;SDS011;5851;54.050;9.974;2023-11-19T05:11:29;2.60;;;2.20;;
11590;SDS011;5851;54.050;9.974;2023-11-19T05:13:56;3.57;;;2.33;;
11590;SDS011;5851;54.050;9.974;2023-11-19T05:16:23;3.77;;;2.80;;
11590;SDS011;5851;54.050;9.974;2023-11-19T05:18:50;3.20;;;2.90;;
11590;SDS011;5851;54.050;9.974;2023-11-19T05:21:18;5.00;;;3.17;;
11590;SDS011;5851;54.050;9.974;2023-11-19T05:23:45;3.40;;;3.07;;
11590;SDS011;5851;54.050;9.974;2023-11-19T05:26:17;4.07;;;3.27;;
11590;SDS011;5851;54.050;9.974;2023-11-19T05:28:45;5.70;;;4.23;;
11590;SDS011;5851;54.050;9.974;2023-11-19T05:31:12;6.67;;;4.63;;
11590;SDS011;5851;54.050;9.974;2023-11-19T05:33:38;6.07;;;5.03;;
11590;SDS011;5851;54.050;9.974;2023-11-19T05:36:06;7.67;;;5.20;;
11590;SDS011;5851;54.050;9.974;2023-11-19T05:38:35;6.63;;;5.20;;
11590;SDS011;5851;54.050;9.974;2023-11-19T05:41:02;6.60;;;5.20;;
11590;SDS011;5851;54.050;9.974;2023-11-19T05:43:30;8.70;;;6.00;;
11590;SDS011;5851;54.050;9.974;2023-11-19T05:45:57;7.73;;;6.00;;
11590;SDS011;5851;54.050;9.974;2023-11-19T05:48:25;8.30;;;6.23;;
11590;SDS011;5851;54.050;9.974;2023-11-19T05:50:52;10.17;;;7.03;;
11590;SDS011;5851;54.050;9.974;2023-11-19T05:53:20;11.53;;;7.90;;
11590;SDS011;5851;54.050;9.974;2023-11-19T05:55:48;9.40;;;6.57;;
11590;SDS011;5851;54.050;9.974;2023-11-19T05:58:20;8.90;;;6.57;;
11590;SDS011;5851;54.050;9.974;2023-11-19T06:00:49;12.47;;;7.93;;
11590;SDS011;5851;54.050;9.974;2023-11-19T06:03:16;13.50;;;8.50;;
11590;SDS011;5851;54.050;9.974;2023-11-19T06:05:44;14.97;;;7.70;;
11590;SDS011;5851;54.050;9.974;2023-11-19T06:08:11;11.33;;;8.60;;
11590;SDS011;5851;54.050;9.974;2023-11-19T06:10:39;13.67;;;8.23;;
11590;SDS011;5851;54.050;9.974;2023-11-19T06:13:08;11.50;;;7.87;;
11590;SDS011;5851;54.050;9.974;2023-11-19T06:15:36;14.67;;;8.63;;
11590;SDS011;5851;54.050;9.974;2023-11-19T06:18:03;13.37;;;9.10;;
11590;SDS011;5851;54.050;9.974;2023-11-19T06:20:32;12.83;;;8.70;;
11590;SDS011;5851;54.050;9.974;2023-11-19T06:23:00;13.40;;;9.10;;
11590;SDS011;5851;54.050;9.974;2023-11-19T06:25:26;14.97;;;9.47;;
11590;SDS011;5851;54.050;9.974;2023-11-19T06:27:54;13.87;;;8.63;;
11590;SDS011;5851;54.050;9.974;2023-11-19T06:30:23;12.70;;;9.00;;
11590;SDS011;5851;54.050;9.974;2023-11-19T06:32:50;14.40;;;9.60;;
11590;SDS011;5851;54.050;9.974;2023-11-19T06:35:17;13.90;;;9.47;;
11590;SDS011;5851;54.050;9.974;2023-11-19T06:37:44;15.57;;;8.97;;
11590;SDS011;5851;54.050;9.974;2023-11-19T06:40:11;13.17;;;8.97;;
11590;SDS011;5851;54.050;9.974;2023-11-19T06:42:40;13.23;;;9.37;;
11590;SDS011;5851;54.050;9.974;2023-11-19T06:45:08;18.23;;;10.80;;
11590;SDS011;5851;54.050;9.974;2023-11-19T06:47:37;14.63;;;9.53;;
11590;SDS011;5851;54.050;9.974;2023-11-19T06:50:04;17.20;;;9.80;;
11590;SDS011;5851;54.050;9.974;2023-11-19T06:52:32;18.70;;;10.13;;
11590;SDS011;5851;54.050;9.974;2023-11-19T06:54:59;21.20;;;10.00;;
11590;SDS011;5851;54.050;9.974;2023-11-19T06:57:26;18.23;;;9.80;;
11590;SDS011;5851;54.050;9.974;2023-11-19T06:59:54;18.10;;;9.17;;
11590;SDS011;5851;54.050;9.974;2023-11-19T07:02:21;23.07;;;9.33;;
11590;SDS011;5851;54.050;9.974;2023-11-19T07:04:49;20.87;;;9.27;;
11590;SDS011;5851;54.050;9.974;2023-11-19T07:07:17;21.83;;;8.67;;
11590;SDS011;5851;54.050;9.974;2023-11-19T07:09:45;25.90;;;9.27;;
11590;SDS011;5851;54.050;9.974;2023-11-19T07:12:13;22.23;;;8.50;;
11590;SDS011;5851;54.050;9.974;2023-11-19T07:14:40;20.63;;;8.10;;
11590;SDS011;5851;54.050;9.974;2023-11-19T07:17:07;22.93;;;7.70;;
11590;SDS011;5851;54.050;9.974;2023-11-19T07:19:35;33.23;;;8.70;;
11590;SDS011;5851;54.050;9.974;2023-11-19T07:22:04;27.97;;;7.43;;
11590;SDS011;5851;54.050;9.974;2023-11-19T07:24:32;26.93;;;7.70;;
11590;SDS011;5851;54.050;9.974;2023-11-19T07:26:59;24.63;;;7.10;;
11590;SDS011;5851;54.050;9.974;2023-11-19T07:29:28;20.13;;;6.47;;
11590;SDS011;5851;54.050;9.974;2023-11-19T07:31:55;24.97;;;6.73;;
11590;SDS011;5851;54.050;9.974;2023-11-19T07:34:22;19.90;;;6.47;;
11590;SDS011;5851;54.050;9.974;2023-11-19T07:36:49;22.30;;;6.77;;
11590;SDS011;5851;54.050;9.974;2023-11-19T07:39:18;24.37;;;6.23;;
11590;SDS011;5851;54.050;9.974;2023-11-19T07:41:45;20.03;;;5.70;;
11590;SDS011;5851;54.050;9.974;2023-11-19T07:44:12;25.53;;;6.27;;
11590;SDS011;5851;54.050;9.974;2023-11-19T07:46:39;21.77;;;5.00;;
11590;SDS011;5851;54.050;9.974;2023-11-19T07:49:07;23.00;;;5.00;;
11590;SDS011;5851;54.050;9.974;2023-11-19T07:51:35;23.67;;;5.53;;
11590;SDS011;5851;54.050;9.974;2023-11-19T07:54:01;23.13;;;5.43;;
11590;SDS011;5851;54.050;9.974;2023-11-19T07:56:30;26.80;;;5.90;;
11590;SDS011;5851;54.050;9.974;2023-11-19T07:58:59;19.70;;;5.57;;
11590;SDS011;5851;54.050;9.974;2023-11-19T08:01:26;22.67;;;5.50;;
11590;SDS011;5851;54.050;9.974;2023-11-19T08:03:53;31.87;;;5.87;;
11590;SDS011;5851;54.050;9.974;2023-11-19T08:06:20;23.47;;;5.93;;
11590;SDS011;5851;54.050;9.974;2023-11-19T08:08:47;22.87;;;5.73;;
11590;SDS011;5851;54.050;9.974;2023-11-19T08:11:14;22.03;;;6.70;;
11590;SDS011;5851;54.050;9.974;2023-11-19T08:13:43;28.50;;;6.50;;
11590;SDS011;5851;54.050;9.974;2023-11-19T08:16:09;24.43;;;5.97;;
11590;SDS011;5851;54.050;9.974;2023-11-19T08:18:36;35.73;;;6.33;;
11590;SDS011;5851;54.050;9.974;2023-11-19T08:21:03;31.47;;;7.50;;
11590;SDS011;5851;54.050;9.974;2023-11-19T08:23:31;40.73;;;6.70;;
11590;SDS011;5851;54.050;9.974;2023-11-19T08:25:58;34.00;;;7.10;;
11590;SDS011;5851;54.050;9.974;2023-11-19T08:28:25;32.87;;;6.60;;
11590;SDS011;5851;54.050;9.974;2023-11-19T08:30:54;32.00;;;7.23;;
11590;SDS011;5851;54.050;9.974;2023-11-19T08:33:21;31.33;;;7.43;;
11590;SDS011;5851;54.050;9.974;2023-11-19T08:35:48;34.07;;;6.57;;
11590;SDS011;5851;54.050;9.974;2023-11-19T08:38:15;26.93;;;6.53;;
11590;SDS011;5851;54.050;9.974;2023-11-19T08:40:42;35.20;;;6.80;;
11590;SDS011;5851;54.050;9.974;2023-11-19T08:43:09;31.70;;;6.30;;
11590;SDS011;5851;54.050;9.974;2023-11-19T08:45:36;32.07;;;7.40;;
11590;SDS011;5851;54.050;9.974;2023-11-19T08:48:05;31.30;;;6.27;;
11590;SDS011;5851;54.050;9.974;2023-11-19T08:50:32;30.30;;;6.37;;
11590;SDS011;5851;54.050;9.974;2023-11-19T08:53:00;28.87;;;6.73;;
11590;SDS011;5851;54.050;9.974;2023-11-19T08:55:27;30.67;;;6.80;;
11590;SDS011;5851;54.050;9.974;2023-11-19T08:57:53;28.53;;;6.07;;
11590;SDS011;5851;54.050;9.974;2023-11-19T09:00:20;29.80;;;5.40;;
11590;SDS011;5851;54.050;9.974;2023-11-19T09:02:47;29.90;;;6.30;;
11590;SDS011;5851;54.050;9.974;2023-11-19T09:05:16;32.33;;;6.63;;
11590;SDS011;5851;54.050;9.974;2023-11-19T09:07:43;29.97;;;5.40;;
11590;SDS011;5851;54.050;9.974;2023-11-19T09:10:10;27.50;;;6.00;;
11590;SDS011;5851;54.050;9.974;2023-11-19T09:12:37;24.73;;;6.10;;
11590;SDS011;5851;54.050;9.974;2023-11-19T09:15:04;30.97;;;5.53;;
11590;SDS011;5851;54.050;9.974;2023-11-19T09:17:32;31.17;;;6.00;;
11590;SDS011;5851;54.050;9.974;2023-11-19T09:19:59;23.50;;;5.33;;
11590;SDS011;5851;54.050;9.974;2023-11-19T09:22:27;27.33;;;5.50;;
11590;SDS011;5851;54.050;9.974;2023-11-19T09:24:54;24.63;;;5.70;;
11590;SDS011;5851;54.050;9.974;2023-11-19T09:27:21;19.83;;;5.10;;
11590;SDS011;5851;54.050;9.974;2023-11-19T09:29:48;28.90;;;6.50;;
11590;SDS011;5851;54.050;9.974;2023-11-19T09:32:22;26.90;;;5.20;;
11590;SDS011;5851;54.050;9.974;2023-11-19T09:34:48;28.80;;;6.47;;
11590;SDS011;5851;54.050;9.974;2023-11-19T09:37:15;29.23;;;5.80;;
11590;SDS011;5851;54.050;9.974;2023-11-19T09:39:44;24.73;;;5.50;;
11590;SDS011;5851;54.050;9.974;2023-11-19T09:42:11;26.83;;;6.40;;
11590;SDS011;5851;54.050;9.974;2023-11-19T09:44:38;26.87;;;6.17;;
11590;SDS011;5851;54.050;9.974;2023-11-19T09:47:06;20.83;;;5.23;;
11590;SDS011;5851;54.050;9.974;2023-11-19T09:49:35;28.37;;;6.03;;
11590;SDS011;5851;54.050;9.974;2023-11-19T09:52:03;26.40;;;5.73;;
11590;SDS011;5851;54.050;9.974;2023-11-19T09:54:30;25.47;;;6.20;;
11590;SDS011;5851;54.050;9.974;2023-11-19T09:56:59;24.00;;;5.97;;
11590;SDS011;5851;54.050;9.974;2023-11-19T09:59:29;25.40;;;6.20;;
11590;SDS011;5851;54.050;9.974;2023-11-19T10:01:56;29.33;;;6.73;;
11590;SDS011;5851;54.050;9.974;2023-11-19T10:04:22;24.57;;;5.57;;
11590;SDS011;5851;54.050;9.974;2023-11-19T10:06:51;27.07;;;5.70;;
11590;SDS011;5851;54.050;9.974;2023-11-19T10:09:18;32.23;;;6.73;;
11590;SDS011;5851;54.050;9.974;2023-11-19T10:11:45;28.13;;;6.17;;
11590;SDS011;5851;54.050;9.974;2023-11-19T10:14:14;32.90;;;6.80;;
11590;SDS011;5851;54.050;9.974;2023-11-19T10:16:41;29.80;;;6.60;;
11590;SDS011;5851;54.050;9.974;2023-11-19T10:19:11;31.93;;;7.33;;
11590;SDS011;5851;54.050;9.974;2023-11-19T10:21:45;29.27;;;5.87;;
11590;SDS011;5851;54.050;9.974;2023-11-19T10:24:12;32.27;;;6.67;;
11590;SDS011;5851;54.050;9.974;2023-11-19T10:26:39;32.77;;;6.20;;
11590;SDS011;5851;54.050;9.974;2023-11-19T10:29:08;32.30;;;5.97;;
11590;SDS011;5851;54.050;9.974;2023-11-19T10:31:40;26.90;;;6.27;;
11590;SDS011;5851;54.050;9.974;2023-11-19T10:34:13;35.77;;;7.23;;
11590;SDS011;5851;54.050;9.974;2023-11-19T10:36:51;30.80;;;6.60;;
11590;SDS011;5851;54.050;9.974;2023-11-19T10:39:18;39.87;;;7.03;;
11590;SDS011;5851;54.050;9.974;2023-11-19T10:41:46;34.33;;;7.07;;
11590;SDS011;5851;54.050;9.974;2023-11-19T10:44:13;33.13;;;7.57;;
11590;SDS011;5851;54.050;9.974;2023-11-19T10:47:00;33.07;;;6.30;;
11590;SDS011;5851;54.050;9.974;2023-11-19T10:49:27;32.43;;;5.83;;
11590;SDS011;5851;54.050;9.974;2023-11-19T10:51:54;22.87;;;5.63;;
11590;SDS011;5851;54.050;9.974;2023-11-19T10:54:23;20.97;;;5.60;;
11590;SDS011;5851;54.050;9.974;2023-11-19T10:56:54;20.70;;;5.03;;
11590;SDS011;5851;54.050;9.974;2023-11-19T10:59:25;25.50;;;5.70;;
11590;SDS011;5851;54.050;9.974;2023-11-19T11:01:56;29.17;;;6.80;;
11590;SDS011;5851;54.050;9.974;2023-11-19T11:04:25;18.87;;;4.80;;
11590;SDS011;5851;54.050;9.974;2023-11-19T11:06:56;23.80;;;4.83;;
11590;SDS011;5851;54.050;9.974;2023-11-19T11:09:26;21.60;;;5.40;;
11590;SDS011;5851;54.050;9.974;2023-11-19T11:11:53;34.07;;;6.17;;
11590;SDS011;5851;54.050;9.974;2023-11-19T11:14:22;28.77;;;6.50;;
11590;SDS011;5851;54.050;9.974;2023-11-19T11:16:51;25.40;;;4.93;;
11590;SDS011;5851;54.050;9.974;2023-11-19T11:19:19;28.70;;;6.80;;
11590;SDS011;5851;54.050;9.974;2023-11-19T11:21:49;25.40;;;5.77;;
11590;SDS011;5851;54.050;9.974;2023-11-19T11:24:24;29.77;;;7.63;;
11590;SDS011;5851;54.050;9.974;2023-11-19T11:27:11;23.43;;;5.80;;
11590;SDS011;5851;54.050;9.974;2023-11-19T11:29:56;27.03;;;6.13;;
11590;SDS011;5851;54.050;9.974;2023-11-19T11:32:33;29.20;;;6.60;;
11590;SDS011;5851;54.050;9.974;2023-11-19T11:35:09;24.77;;;5.43;;
11590;SDS011;5851;54.050;9.974;2023-11-19T11:37:48;22.50;;;4.80;;
11590;SDS011;5851;54.050;9.974;2023-11-19T11:40:19;19.33;;;5.30;;
11590;SDS011;5851;54.050;9.974;2023-11-19T11:42:48;24.77;;;4.97;;
11590;SDS011;5851;54.050;9.974;2023-11-19T11:45:16;23.80;;;4.87;;
11590;SDS011;5851;54.050;9.974;2023-11-19T11:50:52;25.57;;;4.60;;
11590;SDS011;5851;54.050;9.974;2023-11-19T11:53:24;24.47;;;5.13;;
11590;SDS011;5851;54.050;9.974;2023-11-19T11:55:52;23.57;;;5.20;;
11590;SDS011;5851;54.050;9.974;2023-11-19T11:58:34;20.23;;;4.70;;
11590;SDS011;5851;54.050;9.974;2023-11-19T12:01:04;21.70;;;5.70;;
11590;SDS011;5851;54.050;9.974;2023-11-19T12:03:34;26.03;;;5.93;;
11590;SDS011;5851;54.050;9.974;2023-11-19T12:06:04;26.00;;;4.97;;
11590;SDS011;5851;54.050;9.974;2023-11-19T12:08:34;28.70;;;6.00;;
11590;SDS011;5851;54.050;9.974;2023-11-19T12:11:01;27.40;;;6.60;;
11590;SDS011;5851;54.050;9.974;2023-11-19T12:13:52;28.53;;;5.30;;
11590;SDS011;5851;54.050;9.974;2023-11-19T12:16:23;18.17;;;5.03;;
11590;SDS011;5851;54.050;9.974;2023-11-19T12:18:52;31.03;;;5.40;;
11590;SDS011;5851;54.050;9.974;2023-11-19T12:21:29;20.77;;;5.57;;
11590;SDS011;5851;54.050;9.974;2023-11-19T12:23:59;23.47;;;5.70;;
11590;SDS011;5851;54.050;9.974;2023-11-19T12:26:39;19.70;;;5.20;;
11590;SDS011;5851;54.050;9.974;2023-11-19T12:29:06;20.17;;;4.53;;
11590;SDS011;5851;54.050;9.974;2023-11-19T12:31:33;20.63;;;5.30;;
11590;SDS011;5851;54.050;9.974;2023-11-19T12:34:08;27.07;;;5.10;;
11590;SDS011;5851;54.050;9.974;2023-11-19T12:36:37;24.77;;;5.57;;
11590;SDS011;5851;54.050;9.974;2023-11-19T12:39:09;26.03;;;5.67;;
11590;SDS011;5851;54.050;9.974;2023-11-19T12:41:49;26.70;;;5.70;;
11590;SDS011;5851;54.050;9.974;2023-11-19T12:44:17;15.17;;;4.50;;
11590;SDS011;5851;54.050;9.974;2023-11-19T12:46:44;23.53;;;5.37;;
11590;SDS011;5851;54.050;9.974;2023-11-19T12:49:11;20.00;;;5.53;;
11590;SDS011;5851;54.050;9.974;2023-11-19T12:51:38;15.63;;;4.70;;
11590;SDS011;5851;54.050;9.974;2023-11-19T12:54:06;16.47;;;4.33;;
11590;SDS011;5851;54.050;9.974;2023-11-19T12:56:34;19.83;;;5.43;;
11590;SDS011;5851;54.050;9.974;2023-11-19T12:59:10;19.10;;;5.00;;
11590;SDS011;5851;54.050;9.974;2023-11-19T13:01:38;15.10;;;4.20;;
11590;SDS011;5851;54.050;9.974;2023-11-19T13:04:16;18.23;;;4.37;;
11590;SDS011;5851;54.050;9.974;2023-11-19T13:06:44;17.93;;;4.87;;
11590;SDS011;5851;54.050;9.974;2023-11-19T13:09:21;21.47;;;5.33;;
11590;SDS011;5851;54.050;9.974;2023-11-19T13:11:50;22.70;;;5.33;;
11590;SDS011;5851;54.050;9.974;2023-11-19T13:14:17;22.47;;;5.07;;
11590;SDS011;5851;54.050;9.974;2023-11-19T13:16:45;26.50;;;5.00;;
11590;SDS011;5851;54.050;9.974;2023-11-19T13:19:13;24.97;;;6.30;;
11590;SDS011;5851;54.050;9.974;2023-11-19T13:21:41;30.00;;;6.23;;
11590;SDS011;5851;54.050;9.974;2023-11-19T13:24:11;25.90;;;6.27;;
11590;SDS011;5851;54.050;9.974;2023-11-19T13:26:38;29.23;;;5.73;;
11590;SDS011;5851;54.050;9.974;2023-11-19T13:29:06;25.00;;;5.40;;
11590;SDS011;5851;54.050;9.974;2023-11-19T13:31:35;24.13;;;5.40;;
11590;SDS011;5851;54.050;9.974;2023-11-19T13:34:02;27.33;;;5.53;;
11590;SDS011;5851;54.050;9.974;2023-11-19T13:36:32;26.23;;;5.50;;
11590;SDS011;5851;54.050;9.974;2023-11-19T13:38:59;22.13;;;5.13;;
11590;SDS011;5851;54.050;9.974;2023-11-19T13:41:26;25.10;;;6.67;;
11590;SDS011;5851;54.050;9.974;2023-11-19T13:43:53;22.13;;;5.10;;
11590;SDS011;5851;54.050;9.974;2023-11-19T13:46:21;28.07;;;6.57;;
11590;SDS011;5851;54.050;9.974;2023-11-19T13:48:48;25.00;;;5.17;;
11590;SDS011;5851;54.050;9.974;2023-11-19T13:51:15;23.80;;;5.90;;
11590;SDS011;5851;54.050;9.974;2023-11-19T13:53:42;22.80;;;5.87;;
11590;SDS011;5851;54.050;9.974;2023-11-19T13:56:09;16.37;;;4.47;;
11590;SDS011;5851;54.050;9.974;2023-11-19T13:58:44;24.10;;;5.63;;
11590;SDS011;5851;54.050;9.974;2023-11-19T14:01:15;23.87;;;5.50;;
11590;SDS011;5851;54.050;9.974;2023-11-19T14:06:29;24.40;;;4.63;;
11590;SDS011;5851;54.050;9.974;2023-11-19T14:09:02;24.53;;;6.07;;
11590;SDS011;5851;54.050;9.974;2023-11-19T14:11:56;22.00;;;5.50;;
11590;SDS011;5851;54.050;9.974;2023-11-19T14:14:23;19.23;;;4.63;;
11590;SDS011;5851;54.050;9.974;2023-11-19T14:16:49;24.10;;;4.87;;
11590;SDS011;5851;54.050;9.974;2023-11-19T14:19:18;19.63;;;3.87;;
11590;SDS011;5851;54.050;9.974;2023-11-19T14:21:45;21.57;;;3.87;;
11590;SDS011;5851;54.050;9.974;2023-11-19T14:24:12;19.47;;;4.10;;
11590;SDS011;5851;54.050;9.974;2023-11-19T14:26:39;14.13;;;3.57;;
11590;SDS011;5851;54.050;9.974;2023-11-19T14:29:06;19.90;;;4.33;;
11590;SDS011;5851;54.050;9.974;2023-11-19T14:31:33;14.53;;;4.10;;
11590;SDS011;5851;54.050;9.974;2023-11-19T14:34:00;14.53;;;3.70;;
11590;SDS011;5851;54.050;9.974;2023-11-19T14:36:28;15.43;;;4.00;;
11590;SDS011;5851;54.050;9.974;2023-11-19T14:38:55;18.83;;;3.87;;
11590;SDS011;5851;54.050;9.974;2023-11-19T14:41:23;19.57;;;4.00;;
11590;SDS011;5851;54.050;9.974;2023-11-19T14:43:50;17.60;;;4.00;;
11590;SDS011;5851;54.050;9.974;2023-11-19T14:46:17;15.73;;;3.97;;
11590;SDS011;5851;54.050;9.974;2023-11-19T14:48:44;17.00;;;3.73;;
11590;SDS011;5851;54.050;9.974;2023-11-19T14:51:11;16.40;;;4.57;;
11590;SDS011;5851;54.050;9.974;2023-11-19T14:53:39;16.93;;;3.80;;
11590;SDS011;5851;54.050;9.974;2023-11-19T14:56:09;16.50;;;3.77;;
11590;SDS011;5851;54.050;9.974;2023-11-19T14:58:37;16.90;;;3.60;;
11590;SDS011;5851;54.050;9.974;2023-11-19T15:01:05;16.00;;;3.57;;
11590;SDS011;5851;54.050;9.974;2023-11-19T15:03:32;14.50;;;4.17;;
11590;SDS011;5851;54.050;9.974;2023-11-19T15:05:59;15.80;;;3.50;;